Bethel, OK (74724)

10:42 PM CST on November 22, 2014 (GMT -0600)
Idabel | Change Station
CLOSE
Current Station
Airport
Location: Idabel,
Elevation: 472 ft
Nearby Weather Stations

Elev 472 ft 33.91 °N, 94.85 °W | Updated 7 minutes ago

Overcast
Overcast
59 °F
Feels Like 59 °F
N
7
Wind Variable Wind from SE

Today
High -- | Low -- °F
--% Chance of Precip.
Yesterday
High -- | Low -- °F
Precip. -- in
6:59 AM 5:11 PM
New Moon, 1% visible
Pressure 29.81 in
Visibility 2.0 miles
Clouds Overcast 400 ft
Dew Point 55 °F
Humidity 88%
Rainfall 0.75 in
Snow Depth Not available.
UV 0 out of 12
Pollen .50 out of 12
Air Quality Not available.
Flu Activity Not available.
METAR K4O4 230435Z AUTO 14006KT 2SM OVC004 15/13 A2981 RMK AO2 P0016

More Conditions Fewer Conditions

Pressure 29.81 in
Visibility 2.0 miles
Clouds Overcast 400 ft
Dew Point 55 °F
Humidity 88%
Rainfall 0.75 in
Snow Depth Not available.
UV 0 out of 12
Pollen .50 out of 12
Air Quality Not available.
Flu Activity Not available.
METAR K4O4 230435Z AUTO 14006KT 2SM OVC004 15/13 A2981 RMK AO2 P0016

More Conditions Fewer Conditions

Nowcast | as of 10:13 PM CST on November 22, 2014

Through 1130 PM CST...look for a large area of rain and embedded thunderstorms across the four state area to continue moving to the northeast at 30 mph. Expect gusty winds to near 30 mph along with deadly lightning and locally heavy rainfall amounts of one quarter to one half inch per hour with isolated amounts to near six tenths of an inch. Other rainfall amounts will range from one tenth to one quarter of an inch. Some of the heavier rains will affect communities from near Ashdown and Fulton south to Kiblah and Bradley Arkansas. Also from De Kalb and Texarkana to Douglassville and Atlanta...to Marshall and Waskom...and Carthage...Gary city... and Martinsville Texas...and from Rodessa and Plain Dealing to Greenwood...Shreveport and Sligo Louisiana.

×

10-Day Weather Forecast

Almanac

Astronomy

Nov. 22, 2014 Rise Set
Actual Time
Civil Twilight
Nautical Twilight
Astronomical Twilight
Moon
Length of Visible Light
Length of Day
Tomorrow will be .
, % of the Moon is Illuminated

Today's Extremes

State Highs State Lows

Community

WunderPhotos

Upload Photos

1,773,003 photos uploaded!

WunderBlogs® & News

Nearby

Air Quality

  Air Quality AQ Index Pollutant
Not available.

Snow Depth

Station Depth Elevation

Earthquake Activity

City Distance Mag. Time & Date
Minimum magnitude displayed is 2.5.

Coastal Water Temperatures

Place Temperature

Nearby Weather Stations